createdAt,value
2022-09-02T00:01:57.791Z,13.60
2022-09-02T00:04:29.261Z,13.50
2022-09-02T00:06:58.852Z,13.40
2022-09-02T00:09:29.648Z,13.50
2022-09-02T00:12:00.998Z,13.40
2022-09-02T00:14:35.810Z,13.50
2022-09-02T00:17:06.339Z,13.50
2022-09-02T00:19:36.713Z,13.40
2022-09-02T00:22:06.814Z,13.50
2022-09-02T00:24:36.748Z,13.60
2022-09-02T00:27:07.942Z,13.40
2022-09-02T00:29:38.497Z,13.50
2022-09-02T00:32:08.410Z,13.50
2022-09-02T00:34:38.229Z,13.40
2022-09-02T00:37:07.961Z,13.30
2022-09-02T00:39:37.837Z,13.30
2022-09-02T00:42:09.659Z,13.10
2022-09-02T00:44:39.452Z,13.20
2022-09-02T00:47:09.281Z,13.10
2022-09-02T00:49:45.447Z,13.00
2022-09-02T00:52:22.237Z,12.80
2022-09-02T00:54:57.579Z,12.70
2022-09-02T00:57:38.064Z,12.60
2022-09-02T01:00:14.869Z,12.60
2022-09-02T01:02:46.905Z,12.50
2022-09-02T01:05:21.621Z,12.40
2022-09-02T01:07:52.058Z,12.40
2022-09-02T01:10:25.723Z,12.40
2022-09-02T01:13:01.280Z,12.40
2022-09-02T01:15:31.197Z,12.50
2022-09-02T01:18:01.531Z,12.50
2022-09-02T01:20:31.770Z,12.60
2022-09-02T01:23:03.450Z,12.50
2022-09-02T01:25:36.873Z,12.50
2022-09-02T01:28:10.540Z,12.50
2022-09-02T01:30:49.026Z,12.40
2022-09-02T01:33:21.542Z,12.20
2022-09-02T01:35:53.328Z,12.20
2022-09-02T01:38:25.842Z,12.20
2022-09-02T01:40:56.022Z,12.30
2022-09-02T01:43:30.191Z,12.20
2022-09-02T01:46:02.816Z,12.30
2022-09-02T01:48:34.309Z,12.30
2022-09-02T01:51:06.569Z,12.20
2022-09-02T01:53:38.164Z,12.20
2022-09-02T01:56:10.156Z,12.20
2022-09-02T01:58:40.066Z,12.10
2022-09-02T02:01:10.851Z,12.20
2022-09-02T02:03:41.606Z,12.30
2022-09-02T02:06:16.359Z,12.20
2022-09-02T02:08:49.278Z,12.10
2022-09-02T02:11:24.295Z,12.10
2022-09-02T02:13:59.160Z,12.10
2022-09-02T02:16:29.624Z,12.10
2022-09-02T02:18:59.928Z,12.10
2022-09-02T02:21:30.290Z,12.00
2022-09-02T02:24:01.881Z,11.90
2022-09-02T02:26:32.718Z,11.80
2022-09-02T02:29:02.899Z,11.80
2022-09-02T02:31:33.891Z,11.90
2022-09-02T02:34:04.836Z,11.80
2022-09-02T02:36:36.307Z,11.60
2022-09-02T02:39:10.752Z,11.50
2022-09-02T02:41:44.848Z,11.40
2022-09-02T02:44:15.663Z,11.40
2022-09-02T02:46:45.963Z,11.40
2022-09-02T02:49:16.665Z,11.40
2022-09-02T02:51:46.440Z,11.40
2022-09-02T02:54:17.838Z,11.30
2022-09-02T02:56:47.653Z,11.20
2022-09-02T02:59:17.532Z,11.30
2022-09-02T03:01:47.482Z,11.30
2022-09-02T03:04:18.717Z,11.20
2022-09-02T03:06:49.164Z,11.20
2022-09-02T03:09:21.336Z,11.30
2022-09-02T03:11:51.584Z,11.20
2022-09-02T03:14:21.457Z,11.20
2022-09-02T03:16:51.274Z,11.20
2022-09-02T03:19:21.169Z,11.00
2022-09-02T03:21:51.164Z,11.00
2022-09-02T03:24:22.946Z,10.90
2022-09-02T03:26:52.762Z,11.00
2022-09-02T03:29:22.568Z,10.90
2022-09-02T03:31:53.441Z,10.90
2022-09-02T03:34:24.644Z,10.80
2022-09-02T03:36:54.637Z,10.80
2022-09-02T03:39:26.524Z,10.80
2022-09-02T03:41:56.352Z,10.60
2022-09-02T03:44:26.126Z,10.60
2022-09-02T03:46:57.553Z,10.60
2022-09-02T03:49:28.366Z,10.70
2022-09-02T03:51:58.926Z,10.60
2022-09-02T03:54:30.762Z,10.50
2022-09-02T03:57:00.658Z,10.60
2022-09-02T03:59:31.475Z,10.60
2022-09-02T04:02:03.038Z,10.60
2022-09-02T04:04:33.068Z,10.50
2022-09-02T04:07:03.846Z,10.60
2022-09-02T04:09:35.155Z,10.50
2022-09-02T04:12:07.077Z,10.60
2022-09-02T04:14:37.434Z,10.60
2022-09-02T04:17:07.118Z,10.60
2022-09-02T04:19:37.558Z,10.70
2022-09-02T04:22:09.455Z,10.70
2022-09-02T04:24:42.179Z,10.60
2022-09-02T04:27:11.945Z,10.60
2022-09-02T04:29:41.779Z,10.50
2022-09-02T04:32:11.802Z,10.50
2022-09-02T04:34:42.384Z,10.30
2022-09-02T04:37:13.395Z,10.20
2022-09-02T04:39:44.801Z,10.10
2022-09-02T04:42:15.128Z,10.10
2022-09-02T04:44:46.485Z,10.10
2022-09-02T04:47:16.486Z,10.10
2022-09-02T04:49:47.515Z,10.20
2022-09-02T04:52:17.721Z,10.20
2022-09-02T04:54:50.367Z,10.20
2022-09-02T04:57:20.718Z,10.20
2022-09-02T04:59:53.747Z,10.20
2022-09-02T05:02:25.526Z,10.20
2022-09-02T05:04:55.827Z,10.10
2022-09-02T05:07:31.976Z,10.10
2022-09-02T05:10:03.801Z,10.20
2022-09-02T05:12:41.923Z,10.20
2022-09-02T05:15:13.602Z,10.30
2022-09-02T05:17:43.614Z,10.30
2022-09-02T05:20:14.157Z,10.30
2022-09-02T05:22:44.553Z,10.40
2022-09-02T05:25:15.510Z,10.40
2022-09-02T05:27:45.547Z,10.40
2022-09-02T05:30:15.943Z,10.50
2022-09-02T05:32:46.539Z,10.50
2022-09-02T05:35:18.214Z,10.70
2022-09-02T05:37:48.138Z,10.70
2022-09-02T05:40:22.552Z,10.80
2022-09-02T05:42:53.598Z,10.90
2022-09-02T05:45:24.040Z,10.90
2022-09-02T05:47:54.829Z,10.90
2022-09-02T05:50:28.232Z,11.00
2022-09-02T05:53:02.405Z,11.00
2022-09-02T05:55:34.112Z,10.90
2022-09-02T05:58:03.968Z,11.00
2022-09-02T06:00:34.015Z,11.00
2022-09-02T06:03:04.530Z,11.00
2022-09-02T06:05:38.363Z,11.10
2022-09-02T06:08:14.796Z,11.10
2022-09-02T06:10:46.636Z,11.20
2022-09-02T06:13:22.529Z,11.20
2022-09-02T06:15:54.770Z,11.30
2022-09-02T06:18:29.012Z,11.30
2022-09-02T06:21:01.669Z,11.40
2022-09-02T06:23:39.060Z,11.50
2022-09-02T06:26:17.013Z,11.60
2022-09-02T06:28:48.728Z,11.80
2022-09-02T06:31:22.939Z,11.90
2022-09-02T06:33:57.041Z,12.10
2022-09-02T06:36:30.009Z,12.30
2022-09-02T06:39:04.009Z,12.40
2022-09-02T06:41:39.266Z,12.40
2022-09-02T06:44:16.054Z,12.50
2022-09-02T06:46:54.355Z,12.60
2022-09-02T06:49:26.226Z,12.70
2022-09-02T06:52:00.365Z,12.90
2022-09-02T06:54:34.626Z,13.00
2022-09-02T06:57:14.543Z,13.10
2022-09-02T06:59:44.926Z,13.20
2022-09-02T07:05:09.263Z,13.50
2022-09-02T07:07:41.096Z,13.60
2022-09-02T07:10:17.744Z,13.70
2022-09-02T07:12:54.116Z,13.80
2022-09-02T07:15:24.073Z,13.90
2022-09-02T07:17:54.120Z,14.00
2022-09-02T07:20:30.921Z,14.00
2022-09-02T07:23:04.472Z,14.10
2022-09-02T07:25:38.960Z,14.10
2022-09-02T07:28:13.342Z,14.20
2022-09-02T07:30:46.186Z,14.30
2022-09-02T07:33:19.607Z,14.40
2022-09-02T07:35:52.003Z,14.50
2022-09-02T07:38:23.978Z,14.60
2022-09-02T07:40:57.297Z,14.70
2022-09-02T07:43:32.017Z,14.80
2022-09-02T07:46:05.544Z,14.90
2022-09-02T07:48:37.905Z,15.10
2022-09-02T07:51:09.666Z,15.20
2022-09-02T07:53:41.982Z,15.40
2022-09-02T07:56:13.542Z,15.50
2022-09-02T07:58:46.253Z,15.60
2022-09-02T08:01:22.632Z,15.70
2022-09-02T08:03:54.885Z,15.90
2022-09-02T08:06:34.441Z,16.00
2022-09-02T08:09:06.687Z,16.20
2022-09-02T08:11:38.995Z,16.40
2022-09-02T08:14:12.050Z,16.50
2022-09-02T08:16:42.437Z,16.60
2022-09-02T08:19:13.714Z,16.70
2022-09-02T08:21:43.814Z,16.80
2022-09-02T08:24:13.641Z,16.90
2022-09-02T08:26:43.323Z,17.00
2022-09-02T08:29:14.270Z,17.10
2022-09-02T08:31:44.251Z,17.20
2022-09-02T08:34:14.262Z,17.20
2022-09-02T08:36:48.939Z,17.30
2022-09-02T08:39:26.538Z,17.40
2022-09-02T08:42:08.597Z,17.50
2022-09-02T08:44:41.286Z,17.60
2022-09-02T08:47:22.929Z,17.70
2022-09-02T08:49:58.241Z,17.90
2022-09-02T08:52:37.781Z,18.00
2022-09-02T08:55:11.610Z,18.00
2022-09-02T08:57:44.290Z,18.10
2022-09-02T09:00:17.371Z,18.00
2022-09-02T09:03:01.901Z,17.90
2022-09-02T09:05:49.126Z,17.90
2022-09-02T09:08:29.991Z,17.90
2022-09-02T09:11:10.602Z,18.00
2022-09-02T09:14:07.286Z,18.00
2022-09-02T09:16:56.207Z,18.10
2022-09-02T09:19:42.916Z,18.10
2022-09-02T09:22:16.659Z,18.10
2022-09-02T09:24:49.759Z,18.00
2022-09-02T09:27:22.282Z,18.10
2022-09-02T09:29:53.553Z,18.20
2022-09-02T09:32:33.204Z,18.30
2022-09-02T09:35:09.114Z,18.40
2022-09-02T09:37:41.828Z,18.50
2022-09-02T09:40:28.043Z,18.60
2022-09-02T09:43:24.476Z,18.70
2022-09-02T09:45:54.374Z,18.70
2022-09-02T09:48:31.490Z,18.90
2022-09-02T09:51:15.933Z,19.00
2022-09-02T09:53:46.819Z,19.10
2022-09-02T09:56:37.520Z,19.10
2022-09-02T09:59:31.857Z,19.20
2022-09-02T10:02:01.768Z,19.30
2022-09-02T10:04:50.016Z,19.40
2022-09-02T10:07:39.719Z,19.50
2022-09-02T10:10:20.305Z,19.50
2022-09-02T10:12:53.670Z,19.60
2022-09-02T10:15:38.329Z,19.60
2022-09-02T10:18:24.790Z,19.70
2022-09-02T10:21:14.903Z,19.70
2022-09-02T10:23:57.871Z,19.70
2022-09-02T10:26:39.817Z,19.70
2022-09-02T10:29:48.231Z,19.70
2022-09-02T10:32:33.192Z,19.70
2022-09-02T10:35:15.872Z,19.70
2022-09-02T10:38:03.798Z,19.70
2022-09-02T10:40:43.078Z,19.70
2022-09-02T10:43:28.139Z,19.80
2022-09-02T10:46:11.110Z,20.00
2022-09-02T10:48:58.238Z,20.20
2022-09-02T10:51:43.356Z,20.30
2022-09-02T10:54:38.649Z,20.40
2022-09-02T10:57:15.438Z,20.40
2022-09-02T10:59:55.411Z,20.50
2022-09-02T11:02:32.979Z,20.50
2022-09-02T11:05:12.001Z,20.40
2022-09-02T11:07:51.177Z,20.40
2022-09-02T11:10:30.411Z,20.40
2022-09-02T11:13:07.605Z,20.50
2022-09-02T11:15:49.675Z,20.60
2022-09-02T11:18:26.645Z,20.70
2022-09-02T11:21:04.796Z,20.70
2022-09-02T11:23:42.993Z,20.80
2022-09-02T11:26:20.790Z,20.80
2022-09-02T11:29:06.856Z,20.80
2022-09-02T11:31:43.270Z,20.70
2022-09-02T11:34:36.105Z,20.70
2022-09-02T11:37:10.857Z,20.70
2022-09-02T11:40:11.212Z,20.70
2022-09-02T11:43:16.252Z,20.70
2022-09-02T11:46:27.539Z,20.60
2022-09-02T11:49:43.852Z,20.70
2022-09-02T11:52:39.120Z,20.80
2022-09-02T11:55:17.369Z,20.90
2022-09-02T11:57:57.631Z,21.00
2022-09-02T12:00:33.107Z,21.10
2022-09-02T12:03:40.928Z,21.00
2022-09-02T12:06:15.140Z,21.10
2022-09-02T12:09:12.090Z,21.20
2022-09-02T12:11:55.029Z,21.20
2022-09-02T12:15:16.976Z,21.20
2022-09-02T12:18:31.106Z,21.30
2022-09-02T12:21:16.371Z,21.30
2022-09-02T12:24:21.563Z,21.30
2022-09-02T12:27:22.528Z,21.40
2022-09-02T12:29:53.274Z,21.50
2022-09-02T12:33:09.714Z,21.50
2022-09-02T12:35:57.511Z,21.50
2022-09-02T12:38:34.462Z,21.50
2022-09-02T12:41:27.667Z,21.50
2022-09-02T12:44:31.182Z,21.50
2022-09-02T12:47:12.518Z,21.70
2022-09-02T12:50:01.879Z,21.90
2022-09-02T12:52:50.945Z,22.30
2022-09-02T12:55:28.035Z,22.60
2022-09-02T12:58:11.812Z,22.90
2022-09-02T13:01:00.413Z,23.30
2022-09-02T13:04:11.253Z,23.50
2022-09-02T13:07:31.412Z,23.70
2022-09-02T13:10:57.492Z,23.90
2022-09-02T13:14:34.736Z,24.10
2022-09-02T13:17:36.492Z,24.30
2022-09-02T13:20:55.661Z,24.40
2022-09-02T13:24:05.795Z,24.50
2022-09-02T13:26:58.748Z,24.60
2022-09-02T13:30:19.759Z,24.70
2022-09-02T13:33:02.804Z,24.70
2022-09-02T13:35:33.170Z,24.40
2022-09-02T13:38:03.504Z,24.10
2022-09-02T13:40:37.249Z,23.90
2022-09-02T13:43:20.912Z,23.80
2022-09-02T13:45:53.449Z,23.20
2022-09-02T13:48:27.556Z,23.20
2022-09-02T13:51:00.976Z,23.20
2022-09-02T13:53:53.852Z,23.20
2022-09-02T13:56:31.615Z,23.30
2022-09-02T13:59:00.921Z,23.50
2022-09-02T14:01:34.055Z,23.50
2022-09-02T14:04:10.402Z,23.50
2022-09-02T14:06:46.387Z,23.40
2022-09-02T14:09:26.088Z,23.30
2022-09-02T14:11:58.368Z,23.20
2022-09-02T14:14:29.200Z,23.10
2022-09-02T14:17:22.285Z,22.90
2022-09-02T14:19:52.864Z,23.00
2022-09-02T14:22:30.274Z,22.90
2022-09-02T14:24:59.790Z,22.70
2022-09-02T14:27:30.482Z,22.70
2022-09-02T14:30:01.117Z,22.60
2022-09-02T14:32:31.447Z,22.60
2022-09-02T14:35:22.310Z,22.60
2022-09-02T14:37:55.921Z,22.60
2022-09-02T14:40:37.675Z,22.60
2022-09-02T14:43:16.171Z,22.60
2022-09-02T14:45:50.672Z,22.60
2022-09-02T14:48:25.996Z,22.50
2022-09-02T14:51:03.001Z,22.50
2022-09-02T14:53:33.411Z,22.40
2022-09-02T14:56:03.168Z,22.30
2022-09-02T14:58:33.715Z,22.30
2022-09-02T15:01:04.817Z,22.20
2022-09-02T15:03:39.092Z,22.30
2022-09-02T15:06:13.117Z,22.30
2022-09-02T15:08:44.632Z,22.40
2022-09-02T15:11:20.342Z,22.50
2022-09-02T15:13:50.795Z,22.60
2022-09-02T15:16:20.205Z,22.70
2022-09-02T15:18:49.897Z,22.80
2022-09-02T15:21:21.077Z,22.70
2022-09-02T15:23:51.390Z,22.60
2022-09-02T15:26:20.828Z,22.50
2022-09-02T15:28:52.112Z,22.40
2022-09-02T15:31:21.811Z,22.30
2022-09-02T15:33:54.450Z,22.10
2022-09-02T15:36:26.114Z,22.00
2022-09-02T15:38:56.140Z,22.00
2022-09-02T15:41:28.889Z,22.00
2022-09-02T15:44:00.730Z,22.10
2022-09-02T15:46:32.336Z,22.10
2022-09-02T15:49:05.549Z,22.10
2022-09-02T15:51:35.888Z,22.10
2022-09-02T15:54:08.714Z,22.10
2022-09-02T15:56:42.555Z,22.00
2022-09-02T15:59:15.387Z,21.90
2022-09-02T16:01:47.672Z,21.90
2022-09-02T16:04:17.953Z,21.90
2022-09-02T16:06:49.581Z,22.00
2022-09-02T16:09:20.613Z,21.90
2022-09-02T16:11:52.332Z,21.90
2022-09-02T16:14:25.118Z,21.80
2022-09-02T16:16:56.944Z,21.70
2022-09-02T16:19:30.176Z,21.70
2022-09-02T16:21:59.599Z,21.70
2022-09-02T16:24:28.896Z,21.80
2022-09-02T16:26:58.131Z,21.70
2022-09-02T16:29:30.627Z,21.70
2022-09-02T16:32:23.607Z,21.60
2022-09-02T16:34:49.132Z,21.50
2022-09-02T16:37:18.919Z,21.50
2022-09-02T16:39:48.127Z,21.40
2022-09-02T16:42:17.369Z,21.40
2022-09-02T16:44:51.463Z,21.30
2022-09-02T16:47:20.923Z,21.20
2022-09-02T16:49:49.959Z,21.20
2022-09-02T16:52:18.721Z,21.10
2022-09-02T16:54:47.409Z,21.10
2022-09-02T16:57:15.940Z,21.00
2022-09-02T16:59:46.365Z,21.00
2022-09-02T17:02:15.467Z,20.90
2022-09-02T17:04:44.582Z,20.80
2022-09-02T17:07:13.571Z,20.80
2022-09-02T17:09:44.156Z,20.70
2022-09-02T17:12:13.148Z,20.60
2022-09-02T17:14:42.121Z,20.60
2022-09-02T17:17:14.904Z,20.60
2022-09-02T17:19:43.941Z,20.50
2022-09-02T17:22:12.902Z,20.40
2022-09-02T17:24:42.109Z,20.40
2022-09-02T17:27:11.113Z,20.40
2022-09-02T17:29:49.685Z,20.40
2022-09-02T17:32:21.067Z,20.30
2022-09-02T17:34:52.161Z,20.20
2022-09-02T17:37:22.377Z,20.20
2022-09-02T17:39:51.836Z,20.10
2022-09-02T17:42:21.420Z,20.10
2022-09-02T17:44:50.419Z,20.10
2022-09-02T17:47:23.412Z,20.00
2022-09-02T17:49:53.131Z,20.00
2022-09-02T17:52:25.252Z,20.00
2022-09-02T17:54:55.909Z,19.90
2022-09-02T17:57:43.176Z,19.80
2022-09-02T18:00:16.207Z,19.70
2022-09-02T18:03:31.166Z,19.60
2022-09-02T18:06:11.794Z,19.50
2022-09-02T18:08:50.522Z,19.40
2022-09-02T18:11:20.488Z,19.40
2022-09-02T18:14:05.439Z,19.20
2022-09-02T18:16:39.489Z,19.20
2022-09-02T18:19:19.585Z,19.10
2022-09-02T18:22:06.482Z,19.10
2022-09-02T18:24:56.795Z,19.10
2022-09-02T18:27:39.123Z,19.00
2022-09-02T18:30:10.717Z,19.00
2022-09-02T18:33:20.160Z,18.90
2022-09-02T18:36:07.795Z,18.90
2022-09-02T18:38:54.198Z,18.90
2022-09-02T18:41:41.500Z,18.80
2022-09-02T18:44:28.524Z,18.80
2022-09-02T18:47:06.764Z,18.70
2022-09-02T18:49:39.407Z,18.70
2022-09-02T18:52:12.833Z,18.70
2022-09-02T18:54:54.206Z,18.60
2022-09-02T18:57:23.572Z,18.60
2022-09-02T19:00:02.191Z,18.50
2022-09-02T19:02:43.556Z,18.50
2022-09-02T19:05:26.497Z,18.50
2022-09-02T19:08:21.862Z,18.40
2022-09-02T19:10:54.553Z,18.40
2022-09-02T19:13:29.089Z,18.30
2022-09-02T19:16:02.703Z,18.30
2022-09-02T19:18:34.873Z,18.20
2022-09-02T19:21:05.487Z,18.20
2022-09-02T19:23:40.140Z,18.10
2022-09-02T19:26:10.550Z,18.00
2022-09-02T19:28:43.105Z,18.00
2022-09-02T19:31:20.692Z,17.90
2022-09-02T19:33:52.796Z,17.90
2022-09-02T19:36:26.354Z,17.90
2022-09-02T19:39:03.049Z,17.80
2022-09-02T19:41:33.154Z,17.80
2022-09-02T19:44:04.496Z,17.70
2022-09-02T19:49:25.202Z,17.60
2022-09-02T19:51:54.946Z,17.60
2022-09-02T19:54:26.525Z,17.60
2022-09-02T19:56:56.110Z,17.60
2022-09-02T19:59:26.568Z,17.40
2022-09-02T20:01:58.066Z,17.40
2022-09-02T20:04:30.196Z,17.40
2022-09-02T20:07:01.085Z,17.30
2022-09-02T20:09:37.698Z,17.20
2022-09-02T20:12:07.259Z,17.20
2022-09-02T20:14:37.178Z,17.10
2022-09-02T20:17:19.259Z,17.10
2022-09-02T20:19:50.887Z,17.00
2022-09-02T20:22:21.603Z,16.90
2022-09-02T20:24:52.645Z,16.80
2022-09-02T20:27:42.924Z,16.80
2022-09-02T20:30:18.525Z,16.70
2022-09-02T20:32:58.864Z,16.70
2022-09-02T20:36:06.807Z,16.60
2022-09-02T20:39:11.988Z,16.50
2022-09-02T20:41:57.979Z,16.30
2022-09-02T20:44:52.030Z,16.20
2022-09-02T20:47:42.968Z,16.10
2022-09-02T20:50:42.737Z,16.10
2022-09-02T20:53:42.988Z,16.20
2022-09-02T20:56:24.531Z,16.10
2022-09-02T20:59:07.607Z,16.00
2022-09-02T21:01:40.829Z,15.80
2022-09-02T21:04:29.779Z,15.40
2022-09-02T21:07:08.409Z,15.30
2022-09-02T21:09:55.401Z,15.30
2022-09-02T21:12:37.154Z,15.40
2022-09-02T21:15:21.853Z,15.40
2022-09-02T21:17:57.528Z,15.40
2022-09-02T21:20:39.017Z,15.30
2022-09-02T21:23:19.792Z,15.20
2022-09-02T21:25:56.652Z,15.00
2022-09-02T21:28:36.294Z,14.80
2022-09-02T21:31:15.065Z,14.80
2022-09-02T21:33:49.436Z,14.90
2022-09-02T21:36:25.617Z,14.90
2022-09-02T21:39:00.607Z,14.80
2022-09-02T21:41:37.042Z,14.70
2022-09-02T21:44:17.767Z,14.60
2022-09-02T21:47:01.562Z,14.50
2022-09-02T21:49:51.365Z,14.40
2022-09-02T21:52:35.124Z,14.20
2022-09-02T21:55:20.014Z,14.10
2022-09-02T21:58:26.836Z,14.10
2022-09-02T22:01:06.456Z,14.10
2022-09-02T22:03:47.783Z,14.00
2022-09-02T22:06:27.878Z,14.00
2022-09-02T22:09:08.578Z,14.00
2022-09-02T22:11:44.783Z,14.00
2022-09-02T22:14:19.156Z,13.90
2022-09-02T22:16:59.147Z,13.80
2022-09-02T22:19:37.827Z,13.80
2022-09-02T22:22:14.988Z,13.70
2022-09-02T22:24:47.949Z,13.80
2022-09-02T22:27:22.806Z,13.70
2022-09-02T22:30:02.855Z,13.80
2022-09-02T22:32:40.231Z,13.80
2022-09-02T22:35:25.112Z,13.60
2022-09-02T22:38:03.773Z,13.60
2022-09-02T22:40:40.624Z,13.40
2022-09-02T22:43:15.753Z,13.30
2022-09-02T22:46:11.248Z,13.30
2022-09-02T22:49:08.303Z,13.10
2022-09-02T22:52:07.004Z,12.90
2022-09-02T22:54:36.753Z,12.80
2022-09-02T22:57:24.777Z,12.60
2022-09-02T23:00:03.423Z,12.70
2022-09-02T23:02:39.873Z,12.50
2022-09-02T23:05:47.848Z,12.50
2022-09-02T23:08:22.723Z,12.50
2022-09-02T23:10:58.778Z,12.60
2022-09-02T23:13:53.250Z,12.70
2022-09-02T23:16:35.127Z,12.50
2022-09-02T23:19:22.140Z,12.40
2022-09-02T23:22:05.273Z,12.30
2022-09-02T23:24:47.616Z,12.30
2022-09-02T23:27:34.140Z,12.30
2022-09-02T23:30:04.524Z,12.20
2022-09-02T23:33:10.067Z,12.10
2022-09-02T23:35:53.662Z,12.00
2022-09-02T23:38:53.106Z,11.90
2022-09-02T23:41:24.482Z,11.90
2022-09-02T23:43:54.711Z,11.90
2022-09-02T23:46:43.270Z,11.90
2022-09-02T23:49:27.483Z,11.90
2022-09-02T23:52:10.205Z,11.90
2022-09-02T23:55:09.288Z,11.90
2022-09-02T23:58:03.503Z,12.00
